Terminal Aerodrome Forecast
Issued by NWS Omaha/Valley, NE

Home | Current Version | Previous Version | Text Only | Print | Product List | Glossary On
Versions: 1 2 3 4 5 6 7 8 9 10 11 12 13 14 15 16 17 18 19 20
000
FTUS43 KOAX 170205 AAB
TAFOMA
TAF AMD
KOMA 170205Z 1702/1724 32018G24KT P6SM OVC018
     FM170500 33014KT P6SM OVC018
     FM170900 33008KT P6SM OVC015
     FM171500 33008KT P6SM SCT025 BKN100=

USA.gov is the U.S. government's official web portal to all federal, state and local government web resources and services.